createdAt,value
2022-11-14T00:01:49.544Z,3.88
2022-11-14T00:04:56.310Z,3.90
2022-11-14T00:07:56.193Z,3.78
2022-11-14T00:11:03.187Z,3.25
2022-11-14T00:14:11.722Z,3.50
2022-11-14T00:17:18.675Z,3.53
2022-11-14T00:20:32.244Z,3.50
2022-11-14T00:23:31.348Z,3.70
2022-11-14T00:26:27.899Z,3.72
2022-11-14T00:29:46.196Z,3.60
2022-11-14T00:33:10.331Z,3.55
2022-11-14T00:36:09.519Z,3.60
2022-11-14T00:39:24.080Z,3.65
2022-11-14T00:42:27.139Z,3.85
2022-11-14T00:45:30.855Z,4.28
2022-11-14T00:48:12.108Z,3.97
2022-11-14T00:51:36.626Z,4.03
2022-11-14T00:54:28.222Z,3.60
2022-11-14T00:57:46.049Z,3.72
2022-11-14T01:00:58.312Z,3.38
2022-11-14T01:04:05.394Z,3.72
2022-11-14T01:07:12.413Z,3.20
2022-11-14T01:10:11.718Z,3.50
2022-11-14T01:13:18.929Z,3.63
2022-11-14T01:16:24.818Z,3.47
2022-11-14T01:19:26.177Z,3.33
2022-11-14T01:22:12.902Z,3.13
2022-11-14T01:25:37.353Z,3.03
2022-11-14T01:28:45.114Z,2.90
2022-11-14T01:31:47.025Z,3.33
2022-11-14T01:34:54.208Z,3.38
2022-11-14T01:38:08.997Z,2.95
2022-11-14T01:41:24.560Z,2.90
2022-11-14T01:44:31.619Z,3.35
2022-11-14T01:47:30.907Z,3.00
2022-11-14T01:50:41.191Z,2.95
2022-11-14T01:53:47.984Z,3.10
2022-11-14T01:57:08.617Z,2.80
2022-11-14T02:00:13.522Z,2.58
2022-11-14T02:03:38.160Z,2.63
2022-11-14T02:09:39.557Z,2.78
2022-11-14T02:12:54.150Z,2.70
2022-11-14T02:16:03.503Z,2.60
2022-11-14T02:19:03.165Z,2.70
2022-11-14T02:22:13.049Z,2.60
2022-11-14T02:25:17.837Z,3.10
2022-11-14T02:28:41.247Z,4.63
2022-11-14T02:31:11.662Z,2.73
2022-11-14T02:34:20.162Z,2.78
2022-11-14T02:37:29.407Z,2.88
2022-11-14T02:40:35.520Z,3.15
2022-11-14T02:43:42.682Z,3.70
2022-11-14T02:46:49.793Z,3.50
2022-11-14T02:49:56.803Z,4.53
2022-11-14T02:53:03.989Z,3.35
2022-11-14T02:56:11.025Z,3.63
2022-11-14T02:59:26.289Z,3.17
2022-11-14T03:02:05.491Z,3.55
2022-11-14T03:05:21.885Z,3.40
2022-11-14T03:08:29.017Z,3.75
2022-11-14T03:11:37.933Z,3.45
2022-11-14T03:14:20.565Z,4.05
2022-11-14T03:17:44.886Z,3.38
2022-11-14T03:20:15.964Z,3.78
2022-11-14T03:23:24.655Z,3.17
2022-11-14T03:26:34.144Z,3.40
2022-11-14T03:29:48.708Z,3.72
2022-11-14T03:32:31.499Z,3.72
2022-11-14T03:35:40.478Z,3.60
2022-11-14T03:38:54.952Z,3.63
2022-11-14T03:42:02.876Z,3.75
2022-11-14T03:45:02.290Z,3.70
2022-11-14T03:47:54.817Z,3.53
2022-11-14T03:51:12.385Z,3.50
2022-11-14T03:54:19.071Z,3.60
2022-11-14T04:00:08.739Z,4.05
2022-11-14T04:03:20.757Z,4.05
2022-11-14T04:06:36.071Z,4.70
2022-11-14T04:09:50.828Z,4.20
2022-11-14T04:12:21.190Z,4.32
2022-11-14T04:15:38.027Z,3.92
2022-11-14T04:18:37.886Z,4.72
2022-11-14T04:21:52.523Z,4.10
2022-11-14T04:24:59.466Z,4.47
2022-11-14T04:27:58.625Z,4.72
2022-11-14T04:30:52.971Z,4.68
2022-11-14T04:34:17.147Z,4.72
2022-11-14T04:37:16.258Z,4.90
2022-11-14T04:40:23.123Z,5.40
2022-11-14T04:43:34.231Z,5.10
2022-11-14T04:46:40.021Z,4.90
2022-11-14T04:49:54.756Z,4.75
2022-11-14T04:53:01.737Z,4.80
2022-11-14T04:56:01.288Z,4.47
2022-11-14T04:58:43.999Z,4.30
2022-11-14T05:02:00.475Z,6.10
2022-11-14T05:05:07.138Z,6.85
2022-11-14T05:08:06.372Z,9.75
2022-11-14T05:10:53.833Z,7.13
2022-11-14T05:14:10.294Z,7.85
2022-11-14T05:17:09.486Z,7.22
2022-11-14T05:19:55.308Z,5.50
2022-11-14T05:23:11.807Z,4.63
2022-11-14T05:26:10.642Z,4.28
2022-11-14T05:29:25.806Z,3.72
2022-11-14T05:32:32.819Z,4.18
2022-11-14T05:35:15.410Z,4.32
2022-11-14T05:38:03.990Z,4.10
2022-11-14T05:41:12.550Z,3.85
2022-11-14T05:44:27.714Z,4.25
2022-11-14T05:47:42.449Z,4.20
2022-11-14T05:50:34.012Z,5.07
2022-11-14T05:53:41.497Z,4.60
2022-11-14T05:57:04.006Z,4.20
2022-11-14T05:59:55.495Z,3.80
2022-11-14T06:03:18.508Z,3.28
2022-11-14T06:06:11.716Z,3.80
2022-11-14T06:09:26.151Z,3.97
2022-11-14T06:12:44.337Z,3.85
2022-11-14T06:15:42.649Z,3.63
2022-11-14T06:52:19.746Z,4.95
2022-11-14T08:32:25.425Z,4.63
2022-11-14T08:47:59.780Z,5.35
2022-11-14T09:02:52.861Z,5.15
2022-11-14T09:07:22.188Z,4.60
2022-11-14T09:23:34.951Z,4.32
2022-11-14T09:28:25.983Z,4.88
2022-11-14T09:51:48.129Z,6.00
2022-11-14T10:00:53.495Z,5.45
2022-11-14T10:04:23.850Z,5.35
2022-11-14T10:22:50.427Z,4.28
2022-11-14T10:26:20.283Z,3.92
2022-11-14T10:29:55.591Z,5.18
2022-11-14T10:38:58.156Z,5.30
2022-11-14T10:42:07.485Z,5.10
2022-11-14T10:45:05.481Z,5.10
2022-11-14T10:48:27.821Z,5.00
2022-11-14T10:56:56.930Z,4.70
2022-11-14T10:59:46.048Z,4.85
2022-11-14T11:02:52.827Z,4.70
2022-11-14T11:11:35.922Z,4.68
2022-11-14T11:14:22.391Z,6.07
2022-11-14T11:17:11.940Z,5.57
2022-11-14T11:21:04.760Z,4.35
2022-11-14T11:23:34.892Z,4.40
2022-11-14T11:26:31.855Z,4.07
2022-11-14T11:29:20.217Z,3.70
2022-11-14T11:32:08.899Z,5.35
2022-11-14T11:34:57.540Z,4.75
2022-11-14T11:37:58.021Z,4.63
2022-11-14T11:40:47.064Z,4.63
2022-11-14T11:43:40.077Z,4.47
2022-11-14T11:46:37.547Z,4.50
2022-11-14T11:59:09.882Z,4.13
2022-11-14T12:01:58.561Z,4.10
2022-11-14T12:10:32.954Z,4.15
2022-11-14T12:13:41.378Z,4.20
2022-11-14T12:17:30.166Z,4.85
2022-11-14T12:39:12.780Z,3.47
2022-11-14T12:41:50.205Z,2.95
2022-11-14T12:44:40.768Z,3.28
2022-11-14T12:47:29.156Z,2.90
2022-11-14T12:50:42.430Z,3.30
2022-11-14T12:53:38.171Z,2.90
2022-11-14T12:56:33.527Z,3.30
2022-11-14T12:59:36.343Z,3.60
2022-11-14T13:02:45.936Z,3.30
2022-11-14T13:06:32.467Z,3.92
2022-11-14T13:11:24.894Z,5.97
2022-11-14T13:20:28.053Z,6.47
2022-11-14T13:23:55.165Z,5.60
2022-11-14T13:27:05.849Z,5.80
2022-11-14T13:32:06.657Z,5.47
2022-11-14T13:35:35.539Z,3.90
2022-11-14T13:39:21.125Z,3.45
2022-11-14T13:42:30.412Z,3.47
2022-11-14T13:46:08.478Z,3.58
2022-11-14T13:49:47.181Z,3.72
2022-11-14T13:54:25.857Z,4.32
2022-11-14T14:22:17.619Z,4.32
2022-11-14T14:25:49.395Z,6.18
2022-11-14T14:29:08.880Z,4.10
2022-11-14T14:47:59.053Z,11.27
2022-11-14T14:55:47.836Z,6.88
2022-11-14T14:59:05.230Z,8.82
2022-11-14T15:09:09.938Z,13.80
2022-11-14T16:05:38.357Z,6.68
2022-11-14T16:08:52.923Z,7.60
2022-11-14T16:11:24.364Z,7.13
2022-11-14T16:14:36.317Z,14.55
2022-11-14T16:17:43.330Z,10.43
2022-11-14T16:20:55.340Z,10.05
2022-11-14T16:24:01.964Z,5.80
2022-11-14T16:27:09.712Z,4.70
2022-11-14T16:30:17.124Z,4.75
2022-11-14T16:33:24.433Z,4.50
2022-11-14T16:36:40.697Z,5.05
2022-11-14T16:39:41.435Z,5.30
2022-11-14T16:42:48.074Z,5.13
2022-11-14T16:45:57.181Z,4.60
2022-11-14T16:49:09.663Z,5.28
2022-11-14T16:52:20.326Z,6.90
2022-11-14T16:55:04.023Z,5.70
2022-11-14T16:58:20.527Z,5.55
2022-11-14T17:01:30.396Z,5.68
2022-11-14T17:04:36.149Z,8.68
2022-11-14T17:07:43.790Z,6.70
2022-11-14T17:10:45.217Z,7.40
2022-11-14T17:20:16.404Z,5.95
2022-11-14T17:23:16.419Z,5.72
2022-11-14T17:26:35.800Z,5.13
2022-11-14T17:29:34.095Z,6.10
2022-11-14T17:29:51.011Z,6.30
2022-11-14T17:32:56.417Z,5.82
2022-11-14T17:35:50.009Z,5.32
2022-11-14T17:39:01.495Z,6.22
2022-11-14T17:41:49.105Z,6.18
2022-11-14T17:44:42.847Z,6.53
2022-11-14T17:48:00.329Z,6.30
2022-11-14T17:51:10.892Z,5.90
2022-11-14T17:54:10.790Z,6.45
2022-11-14T17:57:24.664Z,6.30
2022-11-14T18:00:18.713Z,6.05
2022-11-14T18:03:43.521Z,5.72
2022-11-14T18:06:42.300Z,6.55
2022-11-14T18:09:52.196Z,5.70
2022-11-14T18:12:45.275Z,6.03
2022-11-14T18:15:50.463Z,5.88
2022-11-14T18:19:07.596Z,5.93
2022-11-14T18:22:16.182Z,5.35
2022-11-14T18:25:23.225Z,6.20
2022-11-14T18:28:22.155Z,5.30
2022-11-14T18:31:41.067Z,6.88
2022-11-14T18:34:32.022Z,7.25
2022-11-14T18:37:49.712Z,5.93
2022-11-14T18:40:57.628Z,5.40
2022-11-14T18:43:55.633Z,5.70
2022-11-14T18:47:03.570Z,5.78
2022-11-14T18:50:16.854Z,5.63
2022-11-14T18:53:30.744Z,5.82
2022-11-14T18:56:11.330Z,6.47
2022-11-14T18:59:36.312Z,5.28
2022-11-14T19:02:47.368Z,5.30
2022-11-14T19:06:00.959Z,5.15
2022-11-14T19:09:10.845Z,5.32
2022-11-14T19:12:31.937Z,6.38
2022-11-14T19:15:47.100Z,6.20
2022-11-14T19:18:48.936Z,5.28
2022-11-14T19:21:34.172Z,7.32
2022-11-14T19:24:43.208Z,7.82
2022-11-14T19:27:50.627Z,5.63
2022-11-14T19:30:58.467Z,6.80
2022-11-14T19:33:45.560Z,5.15
2022-11-14T19:37:05.347Z,5.18
2022-11-14T19:40:06.571Z,4.97
2022-11-14T19:43:26.380Z,4.95
2022-11-14T19:46:31.029Z,15.35
2022-11-14T19:49:44.028Z,19.80
2022-11-14T19:52:58.849Z,10.25
2022-11-14T19:56:01.885Z,7.72
2022-11-14T19:58:44.399Z,6.85
2022-11-14T20:02:03.242Z,7.47
2022-11-14T20:05:11.115Z,7.65
2022-11-14T20:08:25.790Z,8.93
2022-11-14T20:11:24.835Z,6.78
2022-11-14T20:14:35.070Z,5.68
2022-11-14T20:17:39.622Z,5.50
2022-11-14T20:20:46.811Z,5.32
2022-11-14T20:23:53.906Z,7.30
2022-11-14T20:27:08.275Z,7.53
2022-11-14T20:30:09.693Z,7.43
2022-11-14T20:33:14.504Z,7.72
2022-11-14T20:36:49.976Z,7.60
2022-11-14T20:39:55.155Z,6.97
2022-11-14T20:43:02.296Z,6.13
2022-11-14T20:46:01.611Z,8.55
2022-11-14T20:48:43.880Z,7.47
2022-11-14T20:51:54.217Z,5.90
2022-11-14T20:55:11.940Z,4.35
2022-11-14T20:58:15.129Z,4.70
2022-11-14T21:01:01.733Z,4.63
2022-11-14T21:04:27.611Z,8.00
2022-11-14T21:07:19.606Z,6.93
2022-11-14T21:10:46.425Z,3.90
2022-11-14T21:14:12.452Z,3.30
2022-11-14T21:16:59.399Z,3.03
2022-11-14T21:20:17.143Z,3.30
2022-11-14T21:23:32.815Z,2.67
2022-11-14T21:26:35.329Z,1.92
2022-11-14T21:29:42.956Z,2.67
2022-11-14T21:32:42.397Z,2.53
2022-11-14T21:36:22.524Z,2.38
2022-11-14T21:39:10.977Z,2.00
2022-11-14T21:42:19.732Z,3.47
2022-11-14T21:45:30.778Z,2.90
2022-11-14T21:48:41.388Z,1.77
2022-11-14T21:51:44.812Z,2.00
2022-11-14T21:54:58.822Z,2.40
2022-11-14T21:58:07.045Z,2.90
2022-11-14T22:01:10.821Z,2.88
2022-11-14T22:04:44.503Z,2.85
2022-11-14T22:07:43.683Z,2.20
2022-11-14T22:10:58.999Z,2.15
2022-11-14T22:14:13.612Z,2.17
2022-11-14T22:17:20.921Z,2.85
2022-11-14T22:20:14.049Z,2.35
2022-11-14T22:23:29.789Z,2.80
2022-11-14T22:26:29.961Z,2.13
2022-11-14T22:29:38.545Z,2.17
2022-11-14T22:32:54.307Z,2.63
2022-11-14T22:36:13.555Z,2.60
2022-11-14T22:39:07.373Z,2.47
2022-11-14T22:42:01.271Z,2.33
2022-11-14T22:45:09.925Z,2.10
2022-11-14T22:48:28.889Z,2.90
2022-11-14T22:51:35.182Z,1.42
2022-11-14T22:54:50.325Z,2.33
2022-11-14T22:57:50.784Z,2.10
2022-11-14T23:00:58.176Z,2.38
2022-11-14T23:03:50.109Z,8.38
2022-11-14T23:06:58.935Z,3.55
2022-11-14T23:10:06.544Z,4.88
2022-11-14T23:13:15.576Z,5.05
2022-11-14T23:16:28.504Z,3.30
2022-11-14T23:19:30.386Z,2.70
2022-11-14T23:22:42.792Z,2.30
2022-11-14T23:25:47.737Z,1.98
2022-11-14T23:29:02.155Z,2.85
2022-11-14T23:32:10.715Z,3.35
2022-11-14T23:35:18.243Z,2.33
2022-11-14T23:38:17.591Z,2.15
2022-11-14T23:41:32.673Z,2.25
2022-11-14T23:44:33.363Z,2.15
2022-11-14T23:47:47.943Z,2.22
2022-11-14T23:50:54.815Z,2.78
2022-11-14T23:53:53.512Z,2.05
2022-11-14T23:57:04.359Z,2.17
